sensor_id;sensor_type;location;lat;lon;timestamp;temperature;humidity
9329;DHT22;4703;48.748;19.142;2023-08-24T00:01:39;21.60;99.90
9329;DHT22;4703;48.748;19.142;2023-08-24T00:04:06;21.50;99.90
9329;DHT22;4703;48.748;19.142;2023-08-24T00:06:35;21.50;99.90
9329;DHT22;4703;48.748;19.142;2023-08-24T00:09:02;21.50;99.90
9329;DHT22;4703;48.748;19.142;2023-08-24T00:11:31;21.50;99.90
9329;DHT22;4703;48.748;19.142;2023-08-24T00:13:58;21.50;99.90
9329;DHT22;4703;48.748;19.142;2023-08-24T00:16:25;21.40;99.90
9329;DHT22;4703;48.748;19.142;2023-08-24T00:18:52;21.40;99.90
9329;DHT22;4703;48.748;19.142;2023-08-24T00:21:19;21.30;99.90
9329;DHT22;4703;48.748;19.142;2023-08-24T00:23:50;21.40;99.90
9329;DHT22;4703;48.748;19.142;2023-08-24T00:26:17;21.30;99.90
9329;DHT22;4703;48.748;19.142;2023-08-24T00:28:44;21.30;99.90
9329;DHT22;4703;48.748;19.142;2023-08-24T00:31:13;21.20;99.90
9329;DHT22;4703;48.748;19.142;2023-08-24T00:33:42;21.20;99.90
9329;DHT22;4703;48.748;19.142;2023-08-24T00:36:09;21.20;99.90
9329;DHT22;4703;48.748;19.142;2023-08-24T00:38:36;21.20;99.90
9329;DHT22;4703;48.748;19.142;2023-08-24T00:41:04;21.20;99.90
9329;DHT22;4703;48.748;19.142;2023-08-24T00:43:31;21.20;99.90
9329;DHT22;4703;48.748;19.142;2023-08-24T00:46:00;21.20;99.90
9329;DHT22;4703;48.748;19.142;2023-08-24T00:48:28;21.20;99.90
9329;DHT22;4703;48.748;19.142;2023-08-24T00:50:59;21.20;99.90
9329;DHT22;4703;48.748;19.142;2023-08-24T00:53:29;21.20;99.90
9329;DHT22;4703;48.748;19.142;2023-08-24T00:55:57;21.20;99.90
9329;DHT22;4703;48.748;19.142;2023-08-24T00:58:27;21.20;99.90
9329;DHT22;4703;48.748;19.142;2023-08-24T01:00:55;21.20;99.90
9329;DHT22;4703;48.748;19.142;2023-08-24T01:03:24;21.20;99.90
9329;DHT22;4703;48.748;19.142;2023-08-24T01:05:52;21.20;99.90
9329;DHT22;4703;48.748;19.142;2023-08-24T01:08:20;21.20;99.90
9329;DHT22;4703;48.748;19.142;2023-08-24T01:11:12;21.30;99.90
9329;DHT22;4703;48.748;19.142;2023-08-24T01:13:50;21.30;99.90
9329;DHT22;4703;48.748;19.142;2023-08-24T01:16:26;21.30;99.90
9329;DHT22;4703;48.748;19.142;2023-08-24T01:18:56;21.30;99.90
9329;DHT22;4703;48.748;19.142;2023-08-24T01:21:25;21.30;99.90
9329;DHT22;4703;48.748;19.142;2023-08-24T01:24:12;21.20;99.90
9329;DHT22;4703;48.748;19.142;2023-08-24T01:26:41;21.20;99.90
9329;DHT22;4703;48.748;19.142;2023-08-24T01:29:09;21.20;99.90
9329;DHT22;4703;48.748;19.142;2023-08-24T01:31:36;21.20;99.90
9329;DHT22;4703;48.748;19.142;2023-08-24T01:34:04;21.20;99.90
9329;DHT22;4703;48.748;19.142;2023-08-24T01:36:31;21.10;99.90
9329;DHT22;4703;48.748;19.142;2023-08-24T01:39:14;21.10;99.90
9329;DHT22;4703;48.748;19.142;2023-08-24T01:41:56;21.20;99.90
9329;DHT22;4703;48.748;19.142;2023-08-24T01:44:29;21.20;99.90
9329;DHT22;4703;48.748;19.142;2023-08-24T01:46:59;21.10;99.90
9329;DHT22;4703;48.748;19.142;2023-08-24T01:49:29;21.10;99.90
9329;DHT22;4703;48.748;19.142;2023-08-24T01:51:57;18.70;99.90
9329;DHT22;4703;48.748;19.142;2023-08-24T01:54:25;21.00;99.90
9329;DHT22;4703;48.748;19.142;2023-08-24T01:56:52;20.90;99.90
9329;DHT22;4703;48.748;19.142;2023-08-24T01:59:19;20.90;99.90
9329;DHT22;4703;48.748;19.142;2023-08-24T02:01:46;20.80;99.90
9329;DHT22;4703;48.748;19.142;2023-08-24T02:04:13;20.80;99.90
9329;DHT22;4703;48.748;19.142;2023-08-24T02:06:40;20.70;99.90
9329;DHT22;4703;48.748;19.142;2023-08-24T02:09:07;20.80;99.90
9329;DHT22;4703;48.748;19.142;2023-08-24T02:11:34;20.70;99.90
9329;DHT22;4703;48.748;19.142;2023-08-24T02:14:01;20.70;99.90
9329;DHT22;4703;48.748;19.142;2023-08-24T02:16:28;20.70;99.90
9329;DHT22;4703;48.748;19.142;2023-08-24T02:18:55;20.70;99.90
9329;DHT22;4703;48.748;19.142;2023-08-24T02:21:22;20.70;99.90
9329;DHT22;4703;48.748;19.142;2023-08-24T02:23:49;20.60;99.90
9329;DHT22;4703;48.748;19.142;2023-08-24T02:26:16;20.60;99.90
9329;DHT22;4703;48.748;19.142;2023-08-24T02:28:43;20.60;99.90
9329;DHT22;4703;48.748;19.142;2023-08-24T02:31:10;20.60;99.90
9329;DHT22;4703;48.748;19.142;2023-08-24T02:33:37;20.60;99.90
9329;DHT22;4703;48.748;19.142;2023-08-24T02:36:04;20.60;99.90
9329;DHT22;4703;48.748;19.142;2023-08-24T02:38:31;20.60;99.90
9329;DHT22;4703;48.748;19.142;2023-08-24T02:41:03;20.60;99.90
9329;DHT22;4703;48.748;19.142;2023-08-24T02:43:31;20.60;99.90
9329;DHT22;4703;48.748;19.142;2023-08-24T02:46:03;20.60;99.90
9329;DHT22;4703;48.748;19.142;2023-08-24T02:48:33;20.60;99.90
9329;DHT22;4703;48.748;19.142;2023-08-24T02:51:01;20.50;99.90
9329;DHT22;4703;48.748;19.142;2023-08-24T02:53:30;20.50;99.90
9329;DHT22;4703;48.748;19.142;2023-08-24T02:55:57;20.40;99.90
9329;DHT22;4703;48.748;19.142;2023-08-24T02:58:24;20.40;99.90
9329;DHT22;4703;48.748;19.142;2023-08-24T03:00:51;20.40;99.90
9329;DHT22;4703;48.748;19.142;2023-08-24T03:03:18;20.40;99.90
9329;DHT22;4703;48.748;19.142;2023-08-24T03:05:56;20.30;99.90
9329;DHT22;4703;48.748;19.142;2023-08-24T03:08:24;20.30;99.90
9329;DHT22;4703;48.748;19.142;2023-08-24T03:10:52;20.30;99.90
9329;DHT22;4703;48.748;19.142;2023-08-24T03:13:19;20.30;99.90
9329;DHT22;4703;48.748;19.142;2023-08-24T03:15:46;20.20;99.90
9329;DHT22;4703;48.748;19.142;2023-08-24T03:18:14;20.20;99.90
9329;DHT22;4703;48.748;19.142;2023-08-24T03:20:44;20.10;99.90
9329;DHT22;4703;48.748;19.142;2023-08-24T03:23:12;20.00;99.90
9329;DHT22;4703;48.748;19.142;2023-08-24T03:25:40;20.10;99.90
9329;DHT22;4703;48.748;19.142;2023-08-24T03:28:09;20.00;99.90
9329;DHT22;4703;48.748;19.142;2023-08-24T03:30:38;20.00;99.90
9329;DHT22;4703;48.748;19.142;2023-08-24T03:33:16;20.10;99.90
9329;DHT22;4703;48.748;19.142;2023-08-24T03:35:43;20.00;99.90
9329;DHT22;4703;48.748;19.142;2023-08-24T03:38:10;20.00;99.90
9329;DHT22;4703;48.748;19.142;2023-08-24T03:40:37;20.00;99.90
9329;DHT22;4703;48.748;19.142;2023-08-24T03:43:04;20.00;99.90
9329;DHT22;4703;48.748;19.142;2023-08-24T03:45:31;20.00;99.90
9329;DHT22;4703;48.748;19.142;2023-08-24T03:47:58;20.00;99.90
9329;DHT22;4703;48.748;19.142;2023-08-24T03:50:25;20.00;99.90
9329;DHT22;4703;48.748;19.142;2023-08-24T03:52:54;20.00;99.90
9329;DHT22;4703;48.748;19.142;2023-08-24T03:55:22;20.00;99.90
9329;DHT22;4703;48.748;19.142;2023-08-24T03:57:49;19.90;99.90
9329;DHT22;4703;48.748;19.142;2023-08-24T04:00:17;19.80;99.90
9329;DHT22;4703;48.748;19.142;2023-08-24T04:02:44;19.80;99.90
9329;DHT22;4703;48.748;19.142;2023-08-24T04:05:12;19.80;99.90
9329;DHT22;4703;48.748;19.142;2023-08-24T04:07:39;19.80;99.90
9329;DHT22;4703;48.748;19.142;2023-08-24T04:10:08;19.70;99.90
9329;DHT22;4703;48.748;19.142;2023-08-24T04:12:36;19.60;99.90
9329;DHT22;4703;48.748;19.142;2023-08-24T04:15:03;19.60;99.90
9329;DHT22;4703;48.748;19.142;2023-08-24T04:17:31;19.60;99.90
9329;DHT22;4703;48.748;19.142;2023-08-24T04:19:58;19.40;99.90
9329;DHT22;4703;48.748;19.142;2023-08-24T04:22:25;19.50;99.90
9329;DHT22;4703;48.748;19.142;2023-08-24T04:24:52;19.50;99.90
9329;DHT22;4703;48.748;19.142;2023-08-24T04:27:19;19.50;99.90
9329;DHT22;4703;48.748;19.142;2023-08-24T04:29:46;19.50;99.90
9329;DHT22;4703;48.748;19.142;2023-08-24T04:32:13;19.50;99.90
9329;DHT22;4703;48.748;19.142;2023-08-24T04:34:40;19.50;99.90
9329;DHT22;4703;48.748;19.142;2023-08-24T04:37:07;19.50;99.90
9329;DHT22;4703;48.748;19.142;2023-08-24T04:39:34;19.50;99.90
9329;DHT22;4703;48.748;19.142;2023-08-24T04:42:01;19.40;99.90
9329;DHT22;4703;48.748;19.142;2023-08-24T04:44:29;19.40;99.90
9329;DHT22;4703;48.748;19.142;2023-08-24T04:46:56;19.50;99.90
9329;DHT22;4703;48.748;19.142;2023-08-24T04:49:23;19.50;99.90
9329;DHT22;4703;48.748;19.142;2023-08-24T04:51:50;19.50;99.90
9329;DHT22;4703;48.748;19.142;2023-08-24T04:54:17;19.50;99.90
9329;DHT22;4703;48.748;19.142;2023-08-24T04:56:44;19.50;99.90
9329;DHT22;4703;48.748;19.142;2023-08-24T04:59:11;19.60;99.90
9329;DHT22;4703;48.748;19.142;2023-08-24T05:01:38;19.60;99.90
9329;DHT22;4703;48.748;19.142;2023-08-24T05:04:05;19.60;99.90
9329;DHT22;4703;48.748;19.142;2023-08-24T05:06:32;19.70;99.90
9329;DHT22;4703;48.748;19.142;2023-08-24T05:08:59;19.70;99.90
9329;DHT22;4703;48.748;19.142;2023-08-24T05:11:27;19.70;99.90
9329;DHT22;4703;48.748;19.142;2023-08-24T05:13:57;19.80;99.90
9329;DHT22;4703;48.748;19.142;2023-08-24T05:16:24;19.80;99.90
9329;DHT22;4703;48.748;19.142;2023-08-24T05:18:52;19.80;99.90
9329;DHT22;4703;48.748;19.142;2023-08-24T05:21:19;19.90;99.90
9329;DHT22;4703;48.748;19.142;2023-08-24T05:23:46;19.90;99.90
9329;DHT22;4703;48.748;19.142;2023-08-24T05:26:13;19.90;99.90
9329;DHT22;4703;48.748;19.142;2023-08-24T05:28:40;19.90;99.90
9329;DHT22;4703;48.748;19.142;2023-08-24T05:31:06;19.90;99.90
9329;DHT22;4703;48.748;19.142;2023-08-24T05:33:33;19.90;99.90
9329;DHT22;4703;48.748;19.142;2023-08-24T05:36:00;20.00;99.90
9329;DHT22;4703;48.748;19.142;2023-08-24T05:38:27;20.00;99.90
9329;DHT22;4703;48.748;19.142;2023-08-24T05:40:55;20.10;99.90
9329;DHT22;4703;48.748;19.142;2023-08-24T05:43:22;20.10;99.90
9329;DHT22;4703;48.748;19.142;2023-08-24T05:45:49;20.10;99.90
9329;DHT22;4703;48.748;19.142;2023-08-24T05:48:16;20.10;99.90
9329;DHT22;4703;48.748;19.142;2023-08-24T05:50:44;20.20;99.90
9329;DHT22;4703;48.748;19.142;2023-08-24T05:53:12;20.20;99.90
9329;DHT22;4703;48.748;19.142;2023-08-24T05:55:40;20.20;99.90
9329;DHT22;4703;48.748;19.142;2023-08-24T05:58:08;20.30;99.90
9329;DHT22;4703;48.748;19.142;2023-08-24T06:00:36;20.30;99.90
9329;DHT22;4703;48.748;19.142;2023-08-24T06:03:03;20.40;99.90
9329;DHT22;4703;48.748;19.142;2023-08-24T06:05:31;20.40;99.90
9329;DHT22;4703;48.748;19.142;2023-08-24T06:07:58;20.40;99.90
9329;DHT22;4703;48.748;19.142;2023-08-24T06:10:25;20.40;99.90
9329;DHT22;4703;48.748;19.142;2023-08-24T06:12:53;20.50;99.90
9329;DHT22;4703;48.748;19.142;2023-08-24T06:15:20;20.50;99.90
9329;DHT22;4703;48.748;19.142;2023-08-24T06:17:51;20.50;99.90
9329;DHT22;4703;48.748;19.142;2023-08-24T06:20:19;20.60;99.90
9329;DHT22;4703;48.748;19.142;2023-08-24T06:22:47;20.60;99.90
9329;DHT22;4703;48.748;19.142;2023-08-24T06:25:14;20.70;99.90
9329;DHT22;4703;48.748;19.142;2023-08-24T06:27:41;20.70;99.90
9329;DHT22;4703;48.748;19.142;2023-08-24T06:30:08;20.70;99.90
9329;DHT22;4703;48.748;19.142;2023-08-24T06:32:37;20.80;99.90
9329;DHT22;4703;48.748;19.142;2023-08-24T06:35:05;20.80;99.90
9329;DHT22;4703;48.748;19.142;2023-08-24T06:37:32;20.90;99.90
9329;DHT22;4703;48.748;19.142;2023-08-24T06:40:00;20.90;99.90
9329;DHT22;4703;48.748;19.142;2023-08-24T06:42:27;20.90;99.90
9329;DHT22;4703;48.748;19.142;2023-08-24T06:44:54;21.00;99.90
9329;DHT22;4703;48.748;19.142;2023-08-24T06:47:21;21.00;99.90
9329;DHT22;4703;48.748;19.142;2023-08-24T06:49:48;21.10;99.90
9329;DHT22;4703;48.748;19.142;2023-08-24T06:52:16;19.40;99.90
9329;DHT22;4703;48.748;19.142;2023-08-24T06:54:43;21.20;99.90
9329;DHT22;4703;48.748;19.142;2023-08-24T06:57:11;21.20;99.90
9329;DHT22;4703;48.748;19.142;2023-08-24T06:59:38;21.30;99.90
9329;DHT22;4703;48.748;19.142;2023-08-24T07:02:05;21.30;99.90
9329;DHT22;4703;48.748;19.142;2023-08-24T07:04:32;21.40;99.90
9329;DHT22;4703;48.748;19.142;2023-08-24T07:07:00;21.40;99.90
9329;DHT22;4703;48.748;19.142;2023-08-24T07:09:27;21.40;99.90
9329;DHT22;4703;48.748;19.142;2023-08-24T07:11:54;21.50;99.90
9329;DHT22;4703;48.748;19.142;2023-08-24T07:14:21;21.50;99.90
9329;DHT22;4703;48.748;19.142;2023-08-24T07:16:48;21.60;99.90
9329;DHT22;4703;48.748;19.142;2023-08-24T07:19:16;21.70;99.90
9329;DHT22;4703;48.748;19.142;2023-08-24T07:21:43;21.70;99.90
9329;DHT22;4703;48.748;19.142;2023-08-24T07:24:10;21.80;99.90
9329;DHT22;4703;48.748;19.142;2023-08-24T07:26:37;21.90;99.90
9329;DHT22;4703;48.748;19.142;2023-08-24T07:29:06;21.90;99.90
9329;DHT22;4703;48.748;19.142;2023-08-24T07:31:33;22.00;99.90
9329;DHT22;4703;48.748;19.142;2023-08-24T07:34:04;22.00;99.90
9329;DHT22;4703;48.748;19.142;2023-08-24T07:36:31;22.10;99.90
9329;DHT22;4703;48.748;19.142;2023-08-24T07:38:59;22.20;99.90
9329;DHT22;4703;48.748;19.142;2023-08-24T07:41:26;22.20;99.90
9329;DHT22;4703;48.748;19.142;2023-08-24T07:43:53;22.30;99.90
9329;DHT22;4703;48.748;19.142;2023-08-24T07:46:20;22.30;99.90
9329;DHT22;4703;48.748;19.142;2023-08-24T07:48:47;22.30;99.90
9329;DHT22;4703;48.748;19.142;2023-08-24T07:51:14;22.40;99.90
9329;DHT22;4703;48.748;19.142;2023-08-24T07:53:41;22.40;99.90
9329;DHT22;4703;48.748;19.142;2023-08-24T07:56:08;22.50;99.90
9329;DHT22;4703;48.748;19.142;2023-08-24T07:58:35;22.50;99.90
9329;DHT22;4703;48.748;19.142;2023-08-24T08:01:02;22.50;99.90
9329;DHT22;4703;48.748;19.142;2023-08-24T08:03:29;22.60;99.90
9329;DHT22;4703;48.748;19.142;2023-08-24T08:05:57;22.60;99.90
9329;DHT22;4703;48.748;19.142;2023-08-24T08:08:25;22.70;99.90
9329;DHT22;4703;48.748;19.142;2023-08-24T08:10:59;22.80;99.90
9329;DHT22;4703;48.748;19.142;2023-08-24T08:13:29;22.80;99.90
9329;DHT22;4703;48.748;19.142;2023-08-24T08:16:05;22.90;99.90
9329;DHT22;4703;48.748;19.142;2023-08-24T08:18:34;22.90;99.90
9329;DHT22;4703;48.748;19.142;2023-08-24T08:21:14;23.00;99.90
9329;DHT22;4703;48.748;19.142;2023-08-24T08:23:47;23.00;99.90
9329;DHT22;4703;48.748;19.142;2023-08-24T08:26:15;23.10;99.90
9329;DHT22;4703;48.748;19.142;2023-08-24T08:28:43;23.20;99.90
9329;DHT22;4703;48.748;19.142;2023-08-24T08:31:11;23.20;99.90
9329;DHT22;4703;48.748;19.142;2023-08-24T08:33:38;23.30;99.90
9329;DHT22;4703;48.748;19.142;2023-08-24T08:36:05;23.30;99.90
9329;DHT22;4703;48.748;19.142;2023-08-24T08:38:33;23.40;99.90
9329;DHT22;4703;48.748;19.142;2023-08-24T08:41:04;23.50;99.90
9329;DHT22;4703;48.748;19.142;2023-08-24T08:43:31;23.50;99.90
9329;DHT22;4703;48.748;19.142;2023-08-24T08:46:00;23.60;99.70
9329;DHT22;4703;48.748;19.142;2023-08-24T08:48:29;23.70;99.90
9329;DHT22;4703;48.748;19.142;2023-08-24T08:50:58;23.80;99.90
9329;DHT22;4703;48.748;19.142;2023-08-24T08:53:26;23.90;99.60
9329;DHT22;4703;48.748;19.142;2023-08-24T08:55:54;23.90;98.50
9329;DHT22;4703;48.748;19.142;2023-08-24T08:58:25;24.00;98.30
9329;DHT22;4703;48.748;19.142;2023-08-24T09:00:52;24.10;98.70
9329;DHT22;4703;48.748;19.142;2023-08-24T09:03:19;24.10;97.10
9329;DHT22;4703;48.748;19.142;2023-08-24T09:05:47;24.20;98.10
9329;DHT22;4703;48.748;19.142;2023-08-24T09:08:18;24.20;98.40
9329;DHT22;4703;48.748;19.142;2023-08-24T09:10:45;24.30;98.90
9329;DHT22;4703;48.748;19.142;2023-08-24T09:13:12;24.30;98.20
9329;DHT22;4703;48.748;19.142;2023-08-24T09:15:39;24.40;98.00
9329;DHT22;4703;48.748;19.142;2023-08-24T09:18:06;24.50;98.80
9329;DHT22;4703;48.748;19.142;2023-08-24T09:20:35;24.50;98.80
9329;DHT22;4703;48.748;19.142;2023-08-24T09:23:03;24.60;98.80
9329;DHT22;4703;48.748;19.142;2023-08-24T09:25:30;24.60;97.60
9329;DHT22;4703;48.748;19.142;2023-08-24T09:28:02;24.70;95.70
9329;DHT22;4703;48.748;19.142;2023-08-24T09:30:35;24.70;95.50
9329;DHT22;4703;48.748;19.142;2023-08-24T09:33:03;24.70;95.90
9329;DHT22;4703;48.748;19.142;2023-08-24T09:35:34;24.80;96.50
9329;DHT22;4703;48.748;19.142;2023-08-24T09:38:23;24.90;96.50
9329;DHT22;4703;48.748;19.142;2023-08-24T09:40:52;24.90;94.90
9329;DHT22;4703;48.748;19.142;2023-08-24T09:43:23;24.90;93.50
9329;DHT22;4703;48.748;19.142;2023-08-24T09:45:59;25.00;93.50
9329;DHT22;4703;48.748;19.142;2023-08-24T09:48:26;25.10;95.90
9329;DHT22;4703;48.748;19.142;2023-08-24T09:50:56;25.30;95.60
9329;DHT22;4703;48.748;19.142;2023-08-24T09:53:24;25.40;93.50
9329;DHT22;4703;48.748;19.142;2023-08-24T09:56:09;23.80;95.00
9329;DHT22;4703;48.748;19.142;2023-08-24T09:58:38;25.60;93.00
9329;DHT22;4703;48.748;19.142;2023-08-24T10:01:05;25.70;94.80
9329;DHT22;4703;48.748;19.142;2023-08-24T10:03:34;25.80;91.70
9329;DHT22;4703;48.748;19.142;2023-08-24T10:06:01;25.90;90.20
9329;DHT22;4703;48.748;19.142;2023-08-24T10:08:42;26.00;90.80
9329;DHT22;4703;48.748;19.142;2023-08-24T10:11:15;26.20;89.60
9329;DHT22;4703;48.748;19.142;2023-08-24T10:16:39;26.50;89.60
9329;DHT22;4703;48.748;19.142;2023-08-24T10:19:07;26.70;90.00
9329;DHT22;4703;48.748;19.142;2023-08-24T10:21:37;26.90;85.70
9329;DHT22;4703;48.748;19.142;2023-08-24T10:24:05;27.20;85.40
9329;DHT22;4703;48.748;19.142;2023-08-24T10:26:33;27.40;84.30
9329;DHT22;4703;48.748;19.142;2023-08-24T10:29:03;27.50;84.30
9329;DHT22;4703;48.748;19.142;2023-08-24T10:31:31;27.50;83.90
9329;DHT22;4703;48.748;19.142;2023-08-24T10:33:59;27.50;86.30
9329;DHT22;4703;48.748;19.142;2023-08-24T10:36:27;27.70;89.50
9329;DHT22;4703;48.748;19.142;2023-08-24T10:38:56;27.70;89.10
9329;DHT22;4703;48.748;19.142;2023-08-24T10:41:26;27.70;90.00
9329;DHT22;4703;48.748;19.142;2023-08-24T10:44:04;27.80;86.20
9329;DHT22;4703;48.748;19.142;2023-08-24T10:46:35;27.90;85.90
9329;DHT22;4703;48.748;19.142;2023-08-24T10:49:07;28.10;85.10
9329;DHT22;4703;48.748;19.142;2023-08-24T10:51:43;28.20;85.50
9329;DHT22;4703;48.748;19.142;2023-08-24T10:54:11;28.30;81.20
9329;DHT22;4703;48.748;19.142;2023-08-24T10:56:39;28.40;81.90
9329;DHT22;4703;48.748;19.142;2023-08-24T10:59:25;28.40;81.30
9329;DHT22;4703;48.748;19.142;2023-08-24T11:01:58;28.40;81.00
9329;DHT22;4703;48.748;19.142;2023-08-24T11:04:25;28.50;75.60
9329;DHT22;4703;48.748;19.142;2023-08-24T11:06:53;28.50;76.00
9329;DHT22;4703;48.748;19.142;2023-08-24T11:09:22;28.60;75.20
9329;DHT22;4703;48.748;19.142;2023-08-24T11:12:01;28.60;77.20
9329;DHT22;4703;48.748;19.142;2023-08-24T11:14:30;28.50;74.40
9329;DHT22;4703;48.748;19.142;2023-08-24T11:17:00;28.50;75.40
9329;DHT22;4703;48.748;19.142;2023-08-24T11:19:29;28.50;79.10
9329;DHT22;4703;48.748;19.142;2023-08-24T11:21:58;28.50;78.40
9329;DHT22;4703;48.748;19.142;2023-08-24T11:24:26;28.50;77.40
9329;DHT22;4703;48.748;19.142;2023-08-24T11:26:53;28.60;76.10
9329;DHT22;4703;48.748;19.142;2023-08-24T11:29:20;28.80;75.80
9329;DHT22;4703;48.748;19.142;2023-08-24T11:31:47;28.90;75.90
9329;DHT22;4703;48.748;19.142;2023-08-24T11:34:15;29.10;74.40
9329;DHT22;4703;48.748;19.142;2023-08-24T11:36:51;29.40;74.60
9329;DHT22;4703;48.748;19.142;2023-08-24T11:39:21;29.90;70.00
9329;DHT22;4703;48.748;19.142;2023-08-24T11:42:02;30.20;72.70
9329;DHT22;4703;48.748;19.142;2023-08-24T11:44:45;30.50;70.00
9329;DHT22;4703;48.748;19.142;2023-08-24T11:47:13;30.70;68.10
9329;DHT22;4703;48.748;19.142;2023-08-24T11:49:41;30.90;71.80
9329;DHT22;4703;48.748;19.142;2023-08-24T11:52:08;31.20;71.80
9329;DHT22;4703;48.748;19.142;2023-08-24T11:54:36;31.40;70.40
9329;DHT22;4703;48.748;19.142;2023-08-24T11:57:07;31.70;71.00
9329;DHT22;4703;48.748;19.142;2023-08-24T11:59:36;32.00;67.60
9329;DHT22;4703;48.748;19.142;2023-08-24T12:02:04;32.20;65.90
9329;DHT22;4703;48.748;19.142;2023-08-24T12:04:41;32.40;70.60
9329;DHT22;4703;48.748;19.142;2023-08-24T12:07:13;32.80;65.10
9329;DHT22;4703;48.748;19.142;2023-08-24T12:09:41;33.10;65.60
9329;DHT22;4703;48.748;19.142;2023-08-24T12:12:16;33.30;62.60
9329;DHT22;4703;48.748;19.142;2023-08-24T12:14:44;33.40;61.00
9329;DHT22;4703;48.748;19.142;2023-08-24T12:17:12;33.60;58.20
9329;DHT22;4703;48.748;19.142;2023-08-24T12:19:44;33.50;57.80
9329;DHT22;4703;48.748;19.142;2023-08-24T12:22:16;33.50;61.10
9329;DHT22;4703;48.748;19.142;2023-08-24T12:24:45;33.80;61.30
9329;DHT22;4703;48.748;19.142;2023-08-24T12:29:47;34.20;56.50
9329;DHT22;4703;48.748;19.142;2023-08-24T12:32:17;34.40;55.70
9329;DHT22;4703;48.748;19.142;2023-08-24T12:34:46;34.50;53.50
9329;DHT22;4703;48.748;19.142;2023-08-24T12:37:13;34.40;52.90
9329;DHT22;4703;48.748;19.142;2023-08-24T12:39:41;34.00;51.10
9329;DHT22;4703;48.748;19.142;2023-08-24T12:42:08;33.60;48.90
9329;DHT22;4703;48.748;19.142;2023-08-24T12:44:35;33.30;51.50
9329;DHT22;4703;48.748;19.142;2023-08-24T12:47:03;33.00;52.30
9329;DHT22;4703;48.748;19.142;2023-08-24T12:49:30;32.80;51.40
9329;DHT22;4703;48.748;19.142;2023-08-24T12:51:57;32.50;52.60
9329;DHT22;4703;48.748;19.142;2023-08-24T12:54:24;32.30;48.40
9329;DHT22;4703;48.748;19.142;2023-08-24T12:56:51;31.90;47.20
9329;DHT22;4703;48.748;19.142;2023-08-24T12:59:18;31.50;43.30
9329;DHT22;4703;48.748;19.142;2023-08-24T13:01:45;31.20;47.80
9329;DHT22;4703;48.748;19.142;2023-08-24T13:04:13;31.00;47.70
9329;DHT22;4703;48.748;19.142;2023-08-24T13:06:40;30.70;47.50
9329;DHT22;4703;48.748;19.142;2023-08-24T13:09:07;30.50;48.30
9329;DHT22;4703;48.748;19.142;2023-08-24T13:11:35;30.30;47.60
9329;DHT22;4703;48.748;19.142;2023-08-24T13:14:02;30.10;49.30
9329;DHT22;4703;48.748;19.142;2023-08-24T13:16:29;30.10;47.50
9329;DHT22;4703;48.748;19.142;2023-08-24T13:18:56;30.10;49.60
9329;DHT22;4703;48.748;19.142;2023-08-24T13:21:24;30.10;46.10
9329;DHT22;4703;48.748;19.142;2023-08-24T13:23:52;30.00;45.30
9329;DHT22;4703;48.748;19.142;2023-08-24T13:26:20;29.90;47.10
9329;DHT22;4703;48.748;19.142;2023-08-24T13:28:47;29.90;43.80
9329;DHT22;4703;48.748;19.142;2023-08-24T13:31:15;29.80;46.80
9329;DHT22;4703;48.748;19.142;2023-08-24T13:33:44;29.80;45.00
9329;DHT22;4703;48.748;19.142;2023-08-24T13:36:11;29.90;44.50
9329;DHT22;4703;48.748;19.142;2023-08-24T13:38:38;29.90;46.70
9329;DHT22;4703;48.748;19.142;2023-08-24T13:41:05;29.90;48.50
9329;DHT22;4703;48.748;19.142;2023-08-24T13:43:32;29.90;47.50
9329;DHT22;4703;48.748;19.142;2023-08-24T13:45:59;30.00;49.10
9329;DHT22;4703;48.748;19.142;2023-08-24T13:48:30;30.10;48.90
9329;DHT22;4703;48.748;19.142;2023-08-24T13:51:00;30.30;49.20
9329;DHT22;4703;48.748;19.142;2023-08-24T13:53:28;30.40;44.20
9329;DHT22;4703;48.748;19.142;2023-08-24T13:55:55;30.50;47.10
9329;DHT22;4703;48.748;19.142;2023-08-24T13:58:22;30.50;47.60
9329;DHT22;4703;48.748;19.142;2023-08-24T14:00:55;30.50;47.80
9329;DHT22;4703;48.748;19.142;2023-08-24T14:03:23;30.60;48.80
9329;DHT22;4703;48.748;19.142;2023-08-24T14:05:55;30.70;48.40
9329;DHT22;4703;48.748;19.142;2023-08-24T14:08:23;30.90;48.00
9329;DHT22;4703;48.748;19.142;2023-08-24T14:10:52;30.90;47.20
9329;DHT22;4703;48.748;19.142;2023-08-24T14:13:19;31.00;48.60
9329;DHT22;4703;48.748;19.142;2023-08-24T14:15:48;31.00;48.10
9329;DHT22;4703;48.748;19.142;2023-08-24T14:18:16;31.10;48.20
9329;DHT22;4703;48.748;19.142;2023-08-24T14:20:43;31.00;48.20
9329;DHT22;4703;48.748;19.142;2023-08-24T14:23:10;31.00;46.60
9329;DHT22;4703;48.748;19.142;2023-08-24T14:25:37;31.00;46.90
9329;DHT22;4703;48.748;19.142;2023-08-24T14:28:05;31.00;49.20
9329;DHT22;4703;48.748;19.142;2023-08-24T14:30:35;30.90;49.80
9329;DHT22;4703;48.748;19.142;2023-08-24T14:33:03;30.80;50.00
9329;DHT22;4703;48.748;19.142;2023-08-24T14:35:30;30.70;48.70
9329;DHT22;4703;48.748;19.142;2023-08-24T14:37:59;30.70;49.90
9329;DHT22;4703;48.748;19.142;2023-08-24T14:40:26;30.70;50.00
9329;DHT22;4703;48.748;19.142;2023-08-24T14:42:54;30.70;51.70
9329;DHT22;4703;48.748;19.142;2023-08-24T14:45:21;30.70;51.10
9329;DHT22;4703;48.748;19.142;2023-08-24T14:47:49;30.80;51.20
9329;DHT22;4703;48.748;19.142;2023-08-24T14:50:16;30.80;49.50
9329;DHT22;4703;48.748;19.142;2023-08-24T14:52:43;30.80;50.10
9329;DHT22;4703;48.748;19.142;2023-08-24T14:55:10;30.80;47.60
9329;DHT22;4703;48.748;19.142;2023-08-24T14:57:39;30.90;50.50
9329;DHT22;4703;48.748;19.142;2023-08-24T15:00:06;30.80;50.20
9329;DHT22;4703;48.748;19.142;2023-08-24T15:02:36;30.90;50.20
9329;DHT22;4703;48.748;19.142;2023-08-24T15:05:04;30.90;49.30
9329;DHT22;4703;48.748;19.142;2023-08-24T15:07:31;31.00;51.80
9329;DHT22;4703;48.748;19.142;2023-08-24T15:09:58;31.00;51.00
9329;DHT22;4703;48.748;19.142;2023-08-24T15:12:25;31.30;52.20
9329;DHT22;4703;48.748;19.142;2023-08-24T15:15:00;31.50;52.00
9329;DHT22;4703;48.748;19.142;2023-08-24T15:17:30;32.00;52.60
9329;DHT22;4703;48.748;19.142;2023-08-24T15:19:58;32.50;50.80
9329;DHT22;4703;48.748;19.142;2023-08-24T15:22:25;33.10;50.50
9329;DHT22;4703;48.748;19.142;2023-08-24T15:24:56;33.80;50.40
9329;DHT22;4703;48.748;19.142;2023-08-24T15:27:24;34.40;47.50
9329;DHT22;4703;48.748;19.142;2023-08-24T15:29:51;35.00;46.70
9329;DHT22;4703;48.748;19.142;2023-08-24T15:32:19;35.50;44.80
9329;DHT22;4703;48.748;19.142;2023-08-24T15:34:47;36.00;42.00
9329;DHT22;4703;48.748;19.142;2023-08-24T15:37:14;36.30;41.60
9329;DHT22;4703;48.748;19.142;2023-08-24T15:39:41;36.60;42.60
9329;DHT22;4703;48.748;19.142;2023-08-24T15:42:08;36.90;40.60
9329;DHT22;4703;48.748;19.142;2023-08-24T15:44:36;37.00;39.30
9329;DHT22;4703;48.748;19.142;2023-08-24T15:47:03;37.40;39.50
9329;DHT22;4703;48.748;19.142;2023-08-24T15:49:30;37.60;38.70
9329;DHT22;4703;48.748;19.142;2023-08-24T15:51:57;37.70;38.30
9329;DHT22;4703;48.748;19.142;2023-08-24T15:54:24;37.90;38.60
9329;DHT22;4703;48.748;19.142;2023-08-24T15:56:51;37.90;37.60
9329;DHT22;4703;48.748;19.142;2023-08-24T15:59:22;38.00;38.30